sensor_id;sensor_type;location;lat;lon;timestamp;temperature;humidity
9919;DHT22;4998;51.024;13.828;2022-09-09T00:01:18;19.50;95.60
9919;DHT22;4998;51.024;13.828;2022-09-09T00:03:53;19.50;95.70
9919;DHT22;4998;51.024;13.828;2022-09-09T00:06:27;19.40;95.60
9919;DHT22;4998;51.024;13.828;2022-09-09T00:09:01;19.40;95.60
9919;DHT22;4998;51.024;13.828;2022-09-09T00:11:35;19.40;95.70
9919;DHT22;4998;51.024;13.828;2022-09-09T00:14:11;19.30;95.60
9919;DHT22;4998;51.024;13.828;2022-09-09T00:16:42;19.30;95.60
9919;DHT22;4998;51.024;13.828;2022-09-09T00:19:18;19.30;95.60
9919;DHT22;4998;51.024;13.828;2022-09-09T00:21:55;19.20;95.60
9919;DHT22;4998;51.024;13.828;2022-09-09T00:24:27;19.20;95.70
9919;DHT22;4998;51.024;13.828;2022-09-09T00:27:01;19.20;95.70
9919;DHT22;4998;51.024;13.828;2022-09-09T00:29:35;19.10;95.70
9919;DHT22;4998;51.024;13.828;2022-09-09T00:32:12;19.10;95.80
9919;DHT22;4998;51.024;13.828;2022-09-09T00:34:47;19.10;95.90
9919;DHT22;4998;51.024;13.828;2022-09-09T00:37:16;19.10;96.00
9919;DHT22;4998;51.024;13.828;2022-09-09T00:39:46;19.00;96.00
9919;DHT22;4998;51.024;13.828;2022-09-09T00:42:15;19.00;96.00
9919;DHT22;4998;51.024;13.828;2022-09-09T00:44:53;19.00;96.10
9919;DHT22;4998;51.024;13.828;2022-09-09T00:47:36;19.00;96.10
9919;DHT22;4998;51.024;13.828;2022-09-09T00:50:17;18.90;96.20
9919;DHT22;4998;51.024;13.828;2022-09-09T00:52:56;18.90;96.20
9919;DHT22;4998;51.024;13.828;2022-09-09T00:55:31;18.90;96.20
9919;DHT22;4998;51.024;13.828;2022-09-09T00:58:00;18.90;96.30
9919;DHT22;4998;51.024;13.828;2022-09-09T01:00:30;18.80;96.20
9919;DHT22;4998;51.024;13.828;2022-09-09T01:03:12;18.80;96.30
9919;DHT22;4998;51.024;13.828;2022-09-09T01:05:47;18.80;96.40
9919;DHT22;4998;51.024;13.828;2022-09-09T01:08:34;18.80;96.40
9919;DHT22;4998;51.024;13.828;2022-09-09T01:11:02;18.80;96.40
9919;DHT22;4998;51.024;13.828;2022-09-09T01:13:31;18.70;96.30
9919;DHT22;4998;51.024;13.828;2022-09-09T01:16:00;18.70;96.20
9919;DHT22;4998;51.024;13.828;2022-09-09T01:18:30;18.70;96.20
9919;DHT22;4998;51.024;13.828;2022-09-09T01:21:04;18.60;96.20
9919;DHT22;4998;51.024;13.828;2022-09-09T01:24:02;18.60;96.20
9919;DHT22;4998;51.024;13.828;2022-09-09T01:26:35;18.60;96.20
9919;DHT22;4998;51.024;13.828;2022-09-09T01:29:07;18.60;96.20
9919;DHT22;4998;51.024;13.828;2022-09-09T01:31:37;18.60;96.20
9919;DHT22;4998;51.024;13.828;2022-09-09T01:34:09;18.50;96.30
9919;DHT22;4998;51.024;13.828;2022-09-09T01:36:40;18.50;96.40
9919;DHT22;4998;51.024;13.828;2022-09-09T01:39:08;18.50;96.40
9919;DHT22;4998;51.024;13.828;2022-09-09T01:41:37;18.50;96.50
9919;DHT22;4998;51.024;13.828;2022-09-09T01:44:04;18.40;96.50
9919;DHT22;4998;51.024;13.828;2022-09-09T01:46:31;18.40;96.40
9919;DHT22;4998;51.024;13.828;2022-09-09T01:48:59;18.40;96.40
9919;DHT22;4998;51.024;13.828;2022-09-09T01:51:27;18.40;96.50
9919;DHT22;4998;51.024;13.828;2022-09-09T01:53:54;18.30;96.50
9919;DHT22;4998;51.024;13.828;2022-09-09T01:56:38;18.30;96.50
9919;DHT22;4998;51.024;13.828;2022-09-09T01:59:29;18.30;96.60
9919;DHT22;4998;51.024;13.828;2022-09-09T02:02:09;18.30;96.60
9919;DHT22;4998;51.024;13.828;2022-09-09T02:04:39;18.30;96.60
9919;DHT22;4998;51.024;13.828;2022-09-09T02:07:15;18.20;96.60
9919;DHT22;4998;51.024;13.828;2022-09-09T02:09:51;18.20;96.60
9919;DHT22;4998;51.024;13.828;2022-09-09T02:12:24;18.20;96.60
9919;DHT22;4998;51.024;13.828;2022-09-09T02:14:56;18.20;96.50
9919;DHT22;4998;51.024;13.828;2022-09-09T02:17:28;18.20;96.50
9919;DHT22;4998;51.024;13.828;2022-09-09T02:20:02;18.20;96.60
9919;DHT22;4998;51.024;13.828;2022-09-09T02:22:31;18.10;96.70
9919;DHT22;4998;51.024;13.828;2022-09-09T02:25:00;18.10;96.60
9919;DHT22;4998;51.024;13.828;2022-09-09T02:27:30;18.10;96.70
9919;DHT22;4998;51.024;13.828;2022-09-09T02:29:57;18.10;96.70
9919;DHT22;4998;51.024;13.828;2022-09-09T02:32:28;18.00;96.70
9919;DHT22;4998;51.024;13.828;2022-09-09T02:35:00;18.00;96.80
9919;DHT22;4998;51.024;13.828;2022-09-09T02:37:32;18.00;96.80
9919;DHT22;4998;51.024;13.828;2022-09-09T02:40:01;18.00;96.80
9919;DHT22;4998;51.024;13.828;2022-09-09T02:42:30;17.90;96.80
9919;DHT22;4998;51.024;13.828;2022-09-09T02:44:57;17.90;96.80
9919;DHT22;4998;51.024;13.828;2022-09-09T02:47:29;17.90;96.80
9919;DHT22;4998;51.024;13.828;2022-09-09T02:50:06;17.90;96.90
9919;DHT22;4998;51.024;13.828;2022-09-09T02:52:40;17.90;97.00
9919;DHT22;4998;51.024;13.828;2022-09-09T02:55:14;17.80;97.00
9919;DHT22;4998;51.024;13.828;2022-09-09T02:57:47;17.80;97.00
9919;DHT22;4998;51.024;13.828;2022-09-09T03:00:15;17.80;97.00
9919;DHT22;4998;51.024;13.828;2022-09-09T03:02:41;17.80;97.00
9919;DHT22;4998;51.024;13.828;2022-09-09T03:05:08;17.80;97.00
9919;DHT22;4998;51.024;13.828;2022-09-09T03:07:35;17.70;97.00
9919;DHT22;4998;51.024;13.828;2022-09-09T03:10:03;17.70;97.00
9919;DHT22;4998;51.024;13.828;2022-09-09T03:12:31;17.70;97.10
9919;DHT22;4998;51.024;13.828;2022-09-09T03:15:00;17.70;97.10
9919;DHT22;4998;51.024;13.828;2022-09-09T03:17:27;17.70;97.20
9919;DHT22;4998;51.024;13.828;2022-09-09T03:19:54;17.50;97.10
9919;DHT22;4998;51.024;13.828;2022-09-09T03:22:21;17.70;97.30
9919;DHT22;4998;51.024;13.828;2022-09-09T03:24:48;17.60;97.30
9919;DHT22;4998;51.024;13.828;2022-09-09T03:27:15;17.60;97.20
9919;DHT22;4998;51.024;13.828;2022-09-09T03:29:43;17.60;97.20
9919;DHT22;4998;51.024;13.828;2022-09-09T03:32:12;17.50;97.10
9919;DHT22;4998;51.024;13.828;2022-09-09T03:34:38;17.50;97.20
9919;DHT22;4998;51.024;13.828;2022-09-09T03:37:06;17.50;97.30
9919;DHT22;4998;51.024;13.828;2022-09-09T03:39:33;17.50;97.40
9919;DHT22;4998;51.024;13.828;2022-09-09T03:42:00;17.40;97.30
9919;DHT22;4998;51.024;13.828;2022-09-09T03:44:29;17.40;97.50
9919;DHT22;4998;51.024;13.828;2022-09-09T03:46:56;17.40;97.40
9919;DHT22;4998;51.024;13.828;2022-09-09T03:49:27;17.40;97.50
9919;DHT22;4998;51.024;13.828;2022-09-09T03:51:55;17.40;97.60
9919;DHT22;4998;51.024;13.828;2022-09-09T03:54:22;17.40;97.60
9919;DHT22;4998;51.024;13.828;2022-09-09T03:56:49;17.40;97.70
9919;DHT22;4998;51.024;13.828;2022-09-09T03:59:16;17.40;97.70
9919;DHT22;4998;51.024;13.828;2022-09-09T04:01:43;17.40;97.70
9919;DHT22;4998;51.024;13.828;2022-09-09T04:04:11;17.40;97.70
9919;DHT22;4998;51.024;13.828;2022-09-09T04:06:39;17.30;97.70
9919;DHT22;4998;51.024;13.828;2022-09-09T04:09:06;17.30;97.80
9919;DHT22;4998;51.024;13.828;2022-09-09T04:11:32;17.30;97.80
9919;DHT22;4998;51.024;13.828;2022-09-09T04:13:59;17.30;97.90
9919;DHT22;4998;51.024;13.828;2022-09-09T04:16:26;17.30;98.00
9919;DHT22;4998;51.024;13.828;2022-09-09T04:18:54;17.30;98.10
9919;DHT22;4998;51.024;13.828;2022-09-09T04:21:21;17.30;98.10
9919;DHT22;4998;51.024;13.828;2022-09-09T04:23:50;17.30;98.20
9919;DHT22;4998;51.024;13.828;2022-09-09T04:26:17;17.30;98.30
9919;DHT22;4998;51.024;13.828;2022-09-09T04:28:44;17.40;98.30
9919;DHT22;4998;51.024;13.828;2022-09-09T04:31:15;17.40;98.40
9919;DHT22;4998;51.024;13.828;2022-09-09T04:33:42;17.40;98.50
9919;DHT22;4998;51.024;13.828;2022-09-09T04:36:09;17.40;98.40
9919;DHT22;4998;51.024;13.828;2022-09-09T04:38:36;17.40;98.50
9919;DHT22;4998;51.024;13.828;2022-09-09T04:41:05;17.40;98.50
9919;DHT22;4998;51.024;13.828;2022-09-09T04:43:32;17.40;98.60
9919;DHT22;4998;51.024;13.828;2022-09-09T04:46:00;17.50;98.60
9919;DHT22;4998;51.024;13.828;2022-09-09T04:48:26;17.50;98.60
9919;DHT22;4998;51.024;13.828;2022-09-09T04:50:55;17.50;98.70
9919;DHT22;4998;51.024;13.828;2022-09-09T04:53:22;17.50;98.70
9919;DHT22;4998;51.024;13.828;2022-09-09T04:55:49;17.50;98.70
9919;DHT22;4998;51.024;13.828;2022-09-09T04:58:17;17.50;98.60
9919;DHT22;4998;51.024;13.828;2022-09-09T05:00:44;17.60;98.80
9919;DHT22;4998;51.024;13.828;2022-09-09T05:03:11;17.60;98.80
9919;DHT22;4998;51.024;13.828;2022-09-09T05:05:38;17.60;98.80
9919;DHT22;4998;51.024;13.828;2022-09-09T05:08:07;17.60;99.20
9919;DHT22;4998;51.024;13.828;2022-09-09T05:10:36;17.60;99.00
9919;DHT22;4998;51.024;13.828;2022-09-09T05:13:03;17.70;99.50
9919;DHT22;4998;51.024;13.828;2022-09-09T05:15:32;17.70;99.00
9919;DHT22;4998;51.024;13.828;2022-09-09T05:18:00;17.70;99.10
9919;DHT22;4998;51.024;13.828;2022-09-09T05:20:28;17.80;99.20
9919;DHT22;4998;51.024;13.828;2022-09-09T05:22:55;17.80;99.30
9919;DHT22;4998;51.024;13.828;2022-09-09T05:25:22;17.80;99.30
9919;DHT22;4998;51.024;13.828;2022-09-09T05:27:49;17.90;99.30
9919;DHT22;4998;51.024;13.828;2022-09-09T05:30:16;18.00;99.30
9919;DHT22;4998;51.024;13.828;2022-09-09T05:32:45;18.00;99.30
9919;DHT22;4998;51.024;13.828;2022-09-09T05:35:13;18.10;99.40
9919;DHT22;4998;51.024;13.828;2022-09-09T05:37:40;18.10;99.30
9919;DHT22;4998;51.024;13.828;2022-09-09T05:40:07;18.20;99.40
9919;DHT22;4998;51.024;13.828;2022-09-09T05:42:35;18.30;99.50
9919;DHT22;4998;51.024;13.828;2022-09-09T05:45:01;18.30;99.60
9919;DHT22;4998;51.024;13.828;2022-09-09T05:47:29;18.40;99.60
9919;DHT22;4998;51.024;13.828;2022-09-09T05:49:57;18.60;99.70
9919;DHT22;4998;51.024;13.828;2022-09-09T05:52:24;18.70;99.90
9919;DHT22;4998;51.024;13.828;2022-09-09T05:54:51;18.70;99.80
9919;DHT22;4998;51.024;13.828;2022-09-09T05:57:19;18.90;99.80
9919;DHT22;4998;51.024;13.828;2022-09-09T05:59:46;19.00;99.70
9919;DHT22;4998;51.024;13.828;2022-09-09T06:02:13;19.20;99.50
9919;DHT22;4998;51.024;13.828;2022-09-09T06:04:40;19.20;99.30
9919;DHT22;4998;51.024;13.828;2022-09-09T06:07:08;19.30;99.20
9919;DHT22;4998;51.024;13.828;2022-09-09T06:09:35;19.40;99.00
9919;DHT22;4998;51.024;13.828;2022-09-09T06:12:02;19.50;98.90
9919;DHT22;4998;51.024;13.828;2022-09-09T06:14:29;19.50;98.80
9919;DHT22;4998;51.024;13.828;2022-09-09T06:16:56;19.60;98.80
9919;DHT22;4998;51.024;13.828;2022-09-09T06:19:23;19.70;98.70
9919;DHT22;4998;51.024;13.828;2022-09-09T06:21:52;19.70;98.50
9919;DHT22;4998;51.024;13.828;2022-09-09T06:24:20;19.80;98.40
9919;DHT22;4998;51.024;13.828;2022-09-09T06:26:47;19.90;98.30
9919;DHT22;4998;51.024;13.828;2022-09-09T06:29:14;19.90;98.40
9919;DHT22;4998;51.024;13.828;2022-09-09T06:31:41;20.00;98.60
9919;DHT22;4998;51.024;13.828;2022-09-09T06:34:08;20.10;98.60
9919;DHT22;4998;51.024;13.828;2022-09-09T06:36:36;20.20;98.50
9919;DHT22;4998;51.024;13.828;2022-09-09T06:39:04;20.30;98.30
9919;DHT22;4998;51.024;13.828;2022-09-09T06:41:33;20.40;98.10
9919;DHT22;4998;51.024;13.828;2022-09-09T06:44:00;20.50;97.80
9919;DHT22;4998;51.024;13.828;2022-09-09T06:46:28;20.60;97.70
9919;DHT22;4998;51.024;13.828;2022-09-09T06:48:57;20.70;97.50
9919;DHT22;4998;51.024;13.828;2022-09-09T06:51:25;20.80;97.40
9919;DHT22;4998;51.024;13.828;2022-09-09T06:53:54;20.80;97.30
9919;DHT22;4998;51.024;13.828;2022-09-09T06:56:22;20.90;97.20
9919;DHT22;4998;51.024;13.828;2022-09-09T06:58:52;20.90;97.10
9919;DHT22;4998;51.024;13.828;2022-09-09T07:01:21;21.00;97.10
9919;DHT22;4998;51.024;13.828;2022-09-09T07:03:50;21.10;97.20
9919;DHT22;4998;51.024;13.828;2022-09-09T07:06:21;21.20;96.90
9919;DHT22;4998;51.024;13.828;2022-09-09T07:08:49;21.30;96.70
9919;DHT22;4998;51.024;13.828;2022-09-09T07:11:17;21.40;96.40
9919;DHT22;4998;51.024;13.828;2022-09-09T07:13:44;21.50;96.20
9919;DHT22;4998;51.024;13.828;2022-09-09T07:16:15;21.50;96.10
9919;DHT22;4998;51.024;13.828;2022-09-09T07:18:42;21.60;95.80
9919;DHT22;4998;51.024;13.828;2022-09-09T07:21:11;21.60;95.80
9919;DHT22;4998;51.024;13.828;2022-09-09T07:23:39;21.70;95.60
9919;DHT22;4998;51.024;13.828;2022-09-09T07:26:08;21.70;95.50
9919;DHT22;4998;51.024;13.828;2022-09-09T07:28:36;21.80;95.30
9919;DHT22;4998;51.024;13.828;2022-09-09T07:31:03;21.80;95.30
9919;DHT22;4998;51.024;13.828;2022-09-09T07:33:32;21.90;95.20
9919;DHT22;4998;51.024;13.828;2022-09-09T07:36:06;21.90;94.80
9919;DHT22;4998;51.024;13.828;2022-09-09T07:38:38;22.00;94.90
9919;DHT22;4998;51.024;13.828;2022-09-09T07:41:07;22.10;95.10
9919;DHT22;4998;51.024;13.828;2022-09-09T07:43:37;22.20;95.20
9919;DHT22;4998;51.024;13.828;2022-09-09T07:46:04;22.30;95.30
9919;DHT22;4998;51.024;13.828;2022-09-09T07:48:35;22.40;95.30
9919;DHT22;4998;51.024;13.828;2022-09-09T07:51:08;22.50;95.20
9919;DHT22;4998;51.024;13.828;2022-09-09T07:53:36;22.60;95.00
9919;DHT22;4998;51.024;13.828;2022-09-09T07:56:05;22.80;95.10
9919;DHT22;4998;51.024;13.828;2022-09-09T07:58:33;22.90;94.70
9919;DHT22;4998;51.024;13.828;2022-09-09T08:01:00;23.10;94.70
9919;DHT22;4998;51.024;13.828;2022-09-09T08:03:27;23.20;94.40
9919;DHT22;4998;51.024;13.828;2022-09-09T08:06:01;23.30;94.30
9919;DHT22;4998;51.024;13.828;2022-09-09T08:08:28;23.40;93.80
9919;DHT22;4998;51.024;13.828;2022-09-09T08:11:02;23.60;93.80
9919;DHT22;4998;51.024;13.828;2022-09-09T08:13:30;23.70;93.50
9919;DHT22;4998;51.024;13.828;2022-09-09T08:16:07;23.80;94.00
9919;DHT22;4998;51.024;13.828;2022-09-09T08:18:35;23.90;93.10
9919;DHT22;4998;51.024;13.828;2022-09-09T08:21:08;24.00;92.80
9919;DHT22;4998;51.024;13.828;2022-09-09T08:23:38;24.10;92.50
9919;DHT22;4998;51.024;13.828;2022-09-09T08:26:11;24.20;92.50
9919;DHT22;4998;51.024;13.828;2022-09-09T08:28:39;24.20;91.90
9919;DHT22;4998;51.024;13.828;2022-09-09T08:31:11;24.30;92.10
9919;DHT22;4998;51.024;13.828;2022-09-09T08:33:39;24.30;91.90
9919;DHT22;4998;51.024;13.828;2022-09-09T08:36:10;24.30;91.90
9919;DHT22;4998;51.024;13.828;2022-09-09T08:38:37;24.40;91.70
9919;DHT22;4998;51.024;13.828;2022-09-09T08:41:28;24.40;91.80
9919;DHT22;4998;51.024;13.828;2022-09-09T08:44:03;24.40;91.60
9919;DHT22;4998;51.024;13.828;2022-09-09T08:46:40;24.50;91.70
9919;DHT22;4998;51.024;13.828;2022-09-09T08:49:24;24.50;91.60
9919;DHT22;4998;51.024;13.828;2022-09-09T08:51:56;24.50;91.40
9919;DHT22;4998;51.024;13.828;2022-09-09T08:54:24;24.50;91.30
9919;DHT22;4998;51.024;13.828;2022-09-09T08:56:52;24.50;91.40
9919;DHT22;4998;51.024;13.828;2022-09-09T08:59:19;24.50;91.30
9919;DHT22;4998;51.024;13.828;2022-09-09T09:01:53;24.50;91.20
9919;DHT22;4998;51.024;13.828;2022-09-09T09:04:45;24.50;91.00
9919;DHT22;4998;51.024;13.828;2022-09-09T09:07:25;24.60;91.00
9919;DHT22;4998;51.024;13.828;2022-09-09T09:09:58;24.60;90.90
9919;DHT22;4998;51.024;13.828;2022-09-09T09:12:39;24.60;90.70
9919;DHT22;4998;51.024;13.828;2022-09-09T09:15:14;24.70;90.60
9919;DHT22;4998;51.024;13.828;2022-09-09T09:17:43;24.70;90.40
9919;DHT22;4998;51.024;13.828;2022-09-09T09:20:12;24.70;90.30
9919;DHT22;4998;51.024;13.828;2022-09-09T09:22:47;24.80;90.20
9919;DHT22;4998;51.024;13.828;2022-09-09T09:25:17;24.70;90.30
9919;DHT22;4998;51.024;13.828;2022-09-09T09:27:49;24.80;90.40
9919;DHT22;4998;51.024;13.828;2022-09-09T09:30:21;24.80;90.60
9919;DHT22;4998;51.024;13.828;2022-09-09T09:32:52;24.80;90.80
9919;DHT22;4998;51.024;13.828;2022-09-09T09:35:20;24.80;90.80
9919;DHT22;4998;51.024;13.828;2022-09-09T09:37:48;24.80;90.30
9919;DHT22;4998;51.024;13.828;2022-09-09T09:40:17;24.70;89.40
9919;DHT22;4998;51.024;13.828;2022-09-09T09:42:51;24.60;88.60
9919;DHT22;4998;51.024;13.828;2022-09-09T09:45:27;24.50;89.20
9919;DHT22;4998;51.024;13.828;2022-09-09T09:47:59;24.40;89.50
9919;DHT22;4998;51.024;13.828;2022-09-09T09:50:28;24.30;90.10
9919;DHT22;4998;51.024;13.828;2022-09-09T09:52:57;24.10;90.00
9919;DHT22;4998;51.024;13.828;2022-09-09T09:55:26;24.00;89.80
9919;DHT22;4998;51.024;13.828;2022-09-09T09:58:01;23.90;90.10
9919;DHT22;4998;51.024;13.828;2022-09-09T10:00:29;23.80;90.50
9919;DHT22;4998;51.024;13.828;2022-09-09T10:02:56;23.70;90.60
9919;DHT22;4998;51.024;13.828;2022-09-09T10:05:24;23.60;91.20
9919;DHT22;4998;51.024;13.828;2022-09-09T10:08:10;23.60;91.80
9919;DHT22;4998;51.024;13.828;2022-09-09T10:10:57;23.50;92.30
9919;DHT22;4998;51.024;13.828;2022-09-09T10:13:30;23.50;92.60
9919;DHT22;4998;51.024;13.828;2022-09-09T10:16:12;23.50;92.60
9919;DHT22;4998;51.024;13.828;2022-09-09T10:18:54;23.50;92.50
9919;DHT22;4998;51.024;13.828;2022-09-09T10:21:55;23.60;92.20
9919;DHT22;4998;51.024;13.828;2022-09-09T10:27:52;23.70;92.00
9919;DHT22;4998;51.024;13.828;2022-09-09T10:30:24;23.70;91.80
9919;DHT22;4998;51.024;13.828;2022-09-09T10:33:02;23.80;92.20
9919;DHT22;4998;51.024;13.828;2022-09-09T10:35:34;23.80;92.30
9919;DHT22;4998;51.024;13.828;2022-09-09T10:38:16;23.80;92.50
9919;DHT22;4998;51.024;13.828;2022-09-09T10:40:57;23.90;92.60
9919;DHT22;4998;51.024;13.828;2022-09-09T10:43:35;24.00;92.70
9919;DHT22;4998;51.024;13.828;2022-09-09T10:46:10;24.00;92.20
9919;DHT22;4998;51.024;13.828;2022-09-09T10:48:50;24.10;91.90
9919;DHT22;4998;51.024;13.828;2022-09-09T10:51:23;24.10;91.90
9919;DHT22;4998;51.024;13.828;2022-09-09T10:54:02;24.20;91.80
9919;DHT22;4998;51.024;13.828;2022-09-09T10:56:32;24.20;91.90
9919;DHT22;4998;51.024;13.828;2022-09-09T10:59:04;24.30;91.80
9919;DHT22;4998;51.024;13.828;2022-09-09T11:01:37;24.30;91.60
9919;DHT22;4998;51.024;13.828;2022-09-09T11:04:12;24.40;91.30
9919;DHT22;4998;51.024;13.828;2022-09-09T11:06:44;24.40;90.70
9919;DHT22;4998;51.024;13.828;2022-09-09T11:09:16;24.40;90.60
9919;DHT22;4998;51.024;13.828;2022-09-09T11:11:51;24.50;90.10
9919;DHT22;4998;51.024;13.828;2022-09-09T11:14:26;24.50;89.30
9919;DHT22;4998;51.024;13.828;2022-09-09T11:16:57;24.50;87.90
9919;DHT22;4998;51.024;13.828;2022-09-09T11:19:28;24.60;88.40
9919;DHT22;4998;51.024;13.828;2022-09-09T11:21:59;24.60;87.60
9919;DHT22;4998;51.024;13.828;2022-09-09T11:24:29;24.70;87.30
9919;DHT22;4998;51.024;13.828;2022-09-09T11:27:02;24.70;87.40
9919;DHT22;4998;51.024;13.828;2022-09-09T11:30:13;24.80;87.70
9919;DHT22;4998;51.024;13.828;2022-09-09T11:36:11;24.90;90.00
9919;DHT22;4998;51.024;13.828;2022-09-09T11:38:45;24.90;90.20
9919;DHT22;4998;51.024;13.828;2022-09-09T11:41:14;25.00;90.10
9919;DHT22;4998;51.024;13.828;2022-09-09T11:43:43;25.00;90.00
9919;DHT22;4998;51.024;13.828;2022-09-09T11:46:12;25.10;90.20
9919;DHT22;4998;51.024;13.828;2022-09-09T11:48:42;25.10;89.90
9919;DHT22;4998;51.024;13.828;2022-09-09T11:51:13;25.10;88.50
9919;DHT22;4998;51.024;13.828;2022-09-09T11:53:51;25.20;88.00
9919;DHT22;4998;51.024;13.828;2022-09-09T11:56:28;25.20;87.90
9919;DHT22;4998;51.024;13.828;2022-09-09T11:59:01;25.20;88.30
9919;DHT22;4998;51.024;13.828;2022-09-09T12:01:41;25.30;88.50
9919;DHT22;4998;51.024;13.828;2022-09-09T12:04:25;25.40;87.90
9919;DHT22;4998;51.024;13.828;2022-09-09T12:06:57;25.40;87.10
9919;DHT22;4998;51.024;13.828;2022-09-09T12:09:29;25.50;86.00
9919;DHT22;4998;51.024;13.828;2022-09-09T12:12:31;25.60;84.90
9919;DHT22;4998;51.024;13.828;2022-09-09T12:15:21;25.60;85.70
9919;DHT22;4998;51.024;13.828;2022-09-09T12:17:51;25.70;85.10
9919;DHT22;4998;51.024;13.828;2022-09-09T12:20:21;25.80;83.80
9919;DHT22;4998;51.024;13.828;2022-09-09T12:23:00;25.90;83.10
9919;DHT22;4998;51.024;13.828;2022-09-09T12:25:34;25.90;82.00
9919;DHT22;4998;51.024;13.828;2022-09-09T12:28:09;25.90;81.00
9919;DHT22;4998;51.024;13.828;2022-09-09T12:30:44;26.00;82.00
9919;DHT22;4998;51.024;13.828;2022-09-09T12:33:18;26.00;79.70
9919;DHT22;4998;51.024;13.828;2022-09-09T12:35:49;26.00;79.10
9919;DHT22;4998;51.024;13.828;2022-09-09T12:38:23;26.00;78.60
9919;DHT22;4998;51.024;13.828;2022-09-09T12:40:55;26.00;78.80
9919;DHT22;4998;51.024;13.828;2022-09-09T12:43:24;25.90;78.80
9919;DHT22;4998;51.024;13.828;2022-09-09T12:45:54;26.00;79.20
9919;DHT22;4998;51.024;13.828;2022-09-09T12:48:30;26.00;78.20
9919;DHT22;4998;51.024;13.828;2022-09-09T12:50:58;26.10;77.90
9919;DHT22;4998;51.024;13.828;2022-09-09T12:53:29;26.10;77.50
9919;DHT22;4998;51.024;13.828;2022-09-09T12:55:59;26.10;76.90
9919;DHT22;4998;51.024;13.828;2022-09-09T12:58:26;26.20;76.50
9919;DHT22;4998;51.024;13.828;2022-09-09T13:00:59;26.20;76.50
9919;DHT22;4998;51.024;13.828;2022-09-09T13:03:27;26.30;76.30
9919;DHT22;4998;51.024;13.828;2022-09-09T13:05:58;26.30;76.00
9919;DHT22;4998;51.024;13.828;2022-09-09T13:08:26;26.30;74.70
9919;DHT22;4998;51.024;13.828;2022-09-09T13:10:58;26.30;74.70
9919;DHT22;4998;51.024;13.828;2022-09-09T13:13:28;26.40;73.80
9919;DHT22;4998;51.024;13.828;2022-09-09T13:15:57;26.40;74.00
9919;DHT22;4998;51.024;13.828;2022-09-09T13:18:31;26.40;74.20
9919;DHT22;4998;51.024;13.828;2022-09-09T13:20:59;26.30;73.20
9919;DHT22;4998;51.024;13.828;2022-09-09T13:23:29;26.30;74.20
9919;DHT22;4998;51.024;13.828;2022-09-09T13:25:57;26.40;74.40
9919;DHT22;4998;51.024;13.828;2022-09-09T13:28:26;26.40;73.40
9919;DHT22;4998;51.024;13.828;2022-09-09T13:30:58;26.40;73.00
9919;DHT22;4998;51.024;13.828;2022-09-09T13:33:34;26.50;71.80
9919;DHT22;4998;51.024;13.828;2022-09-09T13:36:04;26.50;71.50
9919;DHT22;4998;51.024;13.828;2022-09-09T13:38:35;26.50;71.10
9919;DHT22;4998;51.024;13.828;2022-09-09T13:41:04;26.50;70.40
9919;DHT22;4998;51.024;13.828;2022-09-09T13:43:37;26.50;70.30
9919;DHT22;4998;51.024;13.828;2022-09-09T13:48:55;26.50;69.60
9919;DHT22;4998;51.024;13.828;2022-09-09T13:51:32;26.60;70.10
9919;DHT22;4998;51.024;13.828;2022-09-09T13:54:01;26.60;69.10
9919;DHT22;4998;51.024;13.828;2022-09-09T13:56:27;26.60;68.90
9919;DHT22;4998;51.024;13.828;2022-09-09T13:58:54;26.70;68.70
9919;DHT22;4998;51.024;13.828;2022-09-09T14:01:24;26.80;68.80
9919;DHT22;4998;51.024;13.828;2022-09-09T14:03:51;26.70;68.30
9919;DHT22;4998;51.024;13.828;2022-09-09T14:06:20;26.80;67.20
9919;DHT22;4998;51.024;13.828;2022-09-09T14:08:48;26.80;66.20
9919;DHT22;4998;51.024;13.828;2022-09-09T14:11:17;26.80;66.00
9919;DHT22;4998;51.024;13.828;2022-09-09T14:13:44;26.90;65.50
9919;DHT22;4998;51.024;13.828;2022-09-09T14:16:12;26.80;65.50
9919;DHT22;4998;51.024;13.828;2022-09-09T14:18:39;26.80;66.00
9919;DHT22;4998;51.024;13.828;2022-09-09T14:21:06;26.80;66.00
9919;DHT22;4998;51.024;13.828;2022-09-09T14:23:36;26.80;65.70
9919;DHT22;4998;51.024;13.828;2022-09-09T14:26:04;26.80;65.70
9919;DHT22;4998;51.024;13.828;2022-09-09T14:28:32;26.90;66.50
9919;DHT22;4998;51.024;13.828;2022-09-09T14:30:59;26.90;65.80
9919;DHT22;4998;51.024;13.828;2022-09-09T14:33:27;26.90;65.70
9919;DHT22;4998;51.024;13.828;2022-09-09T14:35:56;26.90;66.10
9919;DHT22;4998;51.024;13.828;2022-09-09T14:38:23;26.90;65.40
9919;DHT22;4998;51.024;13.828;2022-09-09T14:40:52;26.90;65.70
9919;DHT22;4998;51.024;13.828;2022-09-09T14:43:19;26.90;65.80
9919;DHT22;4998;51.024;13.828;2022-09-09T14:45:46;26.90;65.50
9919;DHT22;4998;51.024;13.828;2022-09-09T14:48:16;26.90;65.20
9919;DHT22;4998;51.024;13.828;2022-09-09T14:50:43;26.90;65.00
9919;DHT22;4998;51.024;13.828;2022-09-09T14:53:10;26.90;65.50
9919;DHT22;4998;51.024;13.828;2022-09-09T14:55:38;26.90;64.20
9919;DHT22;4998;51.024;13.828;2022-09-09T14:58:06;26.90;63.90
9919;DHT22;4998;51.024;13.828;2022-09-09T15:00:33;27.00;63.60
9919;DHT22;4998;51.024;13.828;2022-09-09T15:03:01;27.00;63.30
9919;DHT22;4998;51.024;13.828;2022-09-09T15:05:28;27.00;63.30
9919;DHT22;4998;51.024;13.828;2022-09-09T15:07:56;27.00;63.40
9919;DHT22;4998;51.024;13.828;2022-09-09T15:10:24;26.90;63.80
9919;DHT22;4998;51.024;13.828;2022-09-09T15:12:52;26.90;64.10
9919;DHT22;4998;51.024;13.828;2022-09-09T15:15:20;26.90;64.30
9919;DHT22;4998;51.024;13.828;2022-09-09T15:17:47;26.90;64.70
9919;DHT22;4998;51.024;13.828;2022-09-09T15:20:14;26.80;65.10
9919;DHT22;4998;51.024;13.828;2022-09-09T15:22:42;26.80;65.50
9919;DHT22;4998;51.024;13.828;2022-09-09T15:25:09;26.70;65.90
9919;DHT22;4998;51.024;13.828;2022-09-09T15:27:38;26.70;66.20
9919;DHT22;4998;51.024;13.828;2022-09-09T15:30:07;26.60;66.90
9919;DHT22;4998;51.024;13.828;2022-09-09T15:32:36;26.50;67.40
9919;DHT22;4998;51.024;13.828;2022-09-09T15:35:04;26.40;67.50
9919;DHT22;4998;51.024;13.828;2022-09-09T15:37:31;26.30;67.60
9919;DHT22;4998;51.024;13.828;2022-09-09T15:39:58;26.20;67.50
9919;DHT22;4998;51.024;13.828;2022-09-09T15:42:26;26.10;67.40
9919;DHT22;4998;51.024;13.828;2022-09-09T15:44:53;25.90;67.30
9919;DHT22;4998;51.024;13.828;2022-09-09T15:47:20;25.80;67.40
9919;DHT22;4998;51.024;13.828;2022-09-09T15:49:48;25.70;67.60
9919;DHT22;4998;51.024;13.828;2022-09-09T15:52:16;25.50;68.10
9919;DHT22;4998;51.024;13.828;2022-09-09T15:54:42;25.40;68.30
9919;DHT22;4998;51.024;13.828;2022-09-09T15:57:12;25.40;68.70
9919;DHT22;4998;51.024;13.828;2022-09-09T15:59:39;25.30;68.80
9919;DHT22;4998;51.024;13.828;2022-09-09T16:02:06;25.30;69.00
9919;DHT22;4998;51.024;13.828;2022-09-09T16:04:33;25.20;68.90
9919;DHT22;4998;51.024;13.828;2022-09-09T16:07:03;25.20;68.80
9919;DHT22;4998;51.024;13.828;2022-09-09T16:09:31;25.20;69.00
9919;DHT22;4998;51.024;13.828;2022-09-09T16:11:59;25.20;69.10
9919;DHT22;4998;51.024;13.828;2022-09-09T16:14:28;25.10;68.90
9919;DHT22;4998;51.024;13.828;2022-09-09T16:16:59;25.10;68.80